| time (UTC) | temp F | wind direction | speed MPH | gust MPH | rain 1hr in | rain 24hr in | rain mn in | humidity % | barometer mb |
| 20260903193023 | 81 | 292 | 7.0 | 14.0 | 0.00 | 1.08 | 0.01 | 38 | 1013.4 |
| 20260903191518 | 82 | 290 | 4.0 | 8.0 | 0.00 | 1.08 | 0.01 | 31 | 1013.3 |
| 20260903190014 | 80 | 306 | 3.0 | 13.0 | 0.00 | 1.08 | 0.01 | 19 | 1013.5 |
| 20260903184509 | 81 | 286 | 4.0 | 11.0 | 0.00 | 1.08 | 0.01 | 20 | 1013.7 |
| 20260903183005 | 80 | 346 | 4.0 | 9.0 | 0.00 | 1.08 | 0.01 | 20 | 1013.8 |
| 20260903181600 | 78 | 299 | 2.0 | 5.0 | 0.00 | 1.08 | 0.01 | 100 | 1014.0 |
| 20260903180100 | 78 | 360 | 3.0 | 5.0 | 0.00 | 1.08 | 0.01 | 100 | 1013.9 |
| 20260903174553 | 78 | 346 | 4.0 | 8.0 | 0.00 | 1.08 | 0.01 | 100 | 1014.1 |
| 20260903173048 | 78 | 314 | 2.0 | 5.0 | 0.00 | 1.08 | 0.01 | 4 | 1014.1 |
| 20260903171550 | 77 | 296 | 3.0 | 8.0 | 0.00 | 1.08 | 0.01 | 6 | 1014.2 |
| 20260903170038 | 77 | 254 | 2.0 | 5.0 | 0.00 | 1.08 | 0.01 | 8 | 1014.2 |
| 20260903164543 | 78 | 280 | 3.0 | 8.0 | 0.00 | 1.08 | 0.01 | 25 | 1014.1 |
| 20260903163029 | 78 | 288 | 3.0 | 5.0 | 0.00 | 1.08 | 0.01 | 35 | 1014.3 |
| 20260903161525 | 78 | 280 | 3.0 | 8.0 | 0.00 | 1.08 | 0.01 | 30 | 1014.4 |
| 20260903160049 | 79 | 338 | 5.0 | 10.0 | 0.00 | 1.08 | 0.01 | 40 | 1014.7 |
| 20260903154518 | 78 | 308 | 6.0 | 11.0 | 0.00 | 1.08 | 0.01 | 29 | 1014.8 |
| 20260903153012 | 78 | 288 | 5.0 | 9.0 | 0.00 | 1.08 | 0.01 | 100 | 1014.9 |
| 20260903151506 | 76 | 284 | 5.0 | 10.0 | 0.00 | 1.08 | 0.01 | 100 | 1014.8 |
| 20260903150008 | 75 | 304 | 5.0 | 10.0 | 0.00 | 1.08 | 0.01 | 100 | 1014.9 |
| 20260903144604 | 75 | 289 | 7.0 | 13.0 | 0.00 | 1.08 | 0.01 | 100 | 1014.9 |
| 20260903143054 | 75 | 280 | 4.0 | 10.0 | 0.00 | 1.08 | 0.01 | 100 | 1014.9 |
| 20260903141549 | 74 | 249 | 4.0 | 10.0 | 0.00 | 1.08 | 0.01 | 100 | 1014.9 |
| 20260903140045 | 74 | 286 | 3.0 | 8.0 | 0.00 | 1.08 | 0.01 | 100 | 1015.0 |
| 20260903134543 | 74 | 286 | 3.0 | 8.0 | 0.01 | 1.32 | 0.01 | 100 | 1014.9 |
| 20260903133037 | 74 | 277 | 4.0 | 9.0 | 0.01 | 1.32 | 0.01 | 100 | 1014.9 |
| 20260903131531 | 74 | 266 | 3.0 | 10.0 | 0.01 | 1.32 | 0.01 | 100 | 1014.9 |
| 20260903130027 | 73 | 281 | 6.0 | 11.0 | 0.01 | 1.32 | 0.01 | 100 | 1015.1 |
| 20260903124523 | 73 | 275 | 4.0 | 9.0 | 0.00 | 1.31 | 0.00 | 100 | 1015.2 |
| 20260903123019 | 72 | 279 | 4.0 | 8.0 | 0.00 | 1.31 | 0.00 | 100 | 1015.1 |
| 20260903121514 | 71 | 298 | 4.0 | 7.0 | 0.00 | 1.31 | 0.00 | 100 | 1014.9 |
| 20260903120010 | 70 | 248 | 1.0 | 3.0 | 0.00 | 1.31 | 0.00 | 100 | 1014.9 |
| 20260903114506 | 69 | 232 | 0.0 | 2.0 | 0.00 | 1.31 | 0.00 | 100 | 1014.5 |
| 20260903113003 | 67 | 215 | 0.0 | 2.0 | 0.00 | 1.31 | 0.00 | 100 | 1014.4 |
| 20260903111557 | 66 | 355 | 0.0 | 1.0 | 0.00 | 1.31 | 0.00 | 100 | 1014.4 |
| 20260903110053 | 66 | 355 | 0.0 | 2.0 | 0.00 | 1.31 | 0.00 | 100 | 1014.2 |
| 20260903104551 | 65 | 190 | 0.0 | 1.0 | 0.00 | 1.31 | 0.00 | 100 | 1014.0 |
| 20260903103044 | 66 | 190 | 0.0 | 2.0 | 0.00 | 1.31 | 0.00 | 100 | 1013.8 |
| 20260903101540 | 65 | 225 | 0.0 | 0.0 | 0.00 | 1.31 | 0.00 | 100 | 1013.5 |
| 20260903100036 | 66 | 165 | 1.0 | 2.0 | 0.00 | 1.31 | 0.00 | 100 | 1013.5 |
| 20260903094536 | 65 | 202 | 0.0 | 2.0 | 0.00 | 1.31 | 0.00 | 100 | 1013.7 |
| 20260903093039 | 66 | 158 | 0.0 | 3.0 | 0.00 | 1.31 | 0.00 | 100 | 1013.7 |
| 20260903091522 | 66 | 19 | 1.0 | 3.0 | 0.00 | 1.31 | 0.00 | 100 | 1013.6 |
| 20260903090028 | 66 | 148 | 0.0 | 2.0 | 0.00 | 1.31 | 0.00 | 100 | 1013.8 |
| 20260903084514 | 66 | 148 | 0.0 | 2.0 | 0.00 | 1.31 | 0.00 | 100 | 1013.6 |
| 20260903083008 | 66 | 148 | 0.0 | 1.0 | 0.00 | 1.31 | 0.00 | 100 | 1013.5 |
| 20260903081506 | 67 | 148 | 1.0 | 3.0 | 0.00 | 1.31 | 0.00 | 100 | 1013.2 |
| 20260903080117 | 67 | 93 | 0.0 | 1.0 | 0.00 | 1.31 | 0.00 | 100 | 1013.3 |
| 20260903074615 | 68 | 93 | 0.0 | 1.0 | 0.00 | 1.31 | 0.00 | 100 | 1013.1 |
| 20260903073105 | 68 | 93 | 0.0 | 2.0 | 0.00 | 1.31 | 0.00 | 100 | 1013.4 |
| 20260903071548 | 69 | 92 | 0.0 | 2.0 | 0.00 | 1.31 | 0.00 | 100 | 1013.5 |
| 20260903070041 | 70 | 114 | 2.0 | 4.0 | 0.00 | 1.31 | 0.00 | 100 | 1013.4 |
| 20260903064541 | 70 | 238 | 0.0 | 3.0 | 0.00 | 1.31 | 0.00 | 100 | 1013.5 |
| 20260903063032 | 71 | 252 | 0.0 | 3.0 | 0.00 | 1.31 | 0.00 | 100 | 1013.5 |
| 20260903061540 | 71 | 196 | 2.0 | 8.0 | 0.00 | 1.31 | 0.00 | 100 | 1013.5 |
| 20260903060026 | 71 | 288 | 2.0 | 5.0 | 0.00 | 1.31 | 0.00 | 100 | 1013.6 |
| 20260903054519 | 70 | 248 | 3.0 | 8.0 | 0.00 | 1.31 | 0.00 | 100 | 1013.4 |
| 20260903053015 | 70 | 143 | 3.0 | 8.0 | 0.00 | 1.31 | 0.00 | 100 | 1013.2 |
| 20260903051511 | 69 | 207 | 3.0 | 9.0 | 0.00 | 1.31 | 0.00 | 100 | 1013.2 |
| 20260903050023 | 69 | 217 | 4.0 | 8.0 | 0.00 | 1.31 | 0.00 | 100 | 1013.0 |
| 20260903044501 | 69 | 223 | 5.0 | 12.0 | 0.00 | 1.31 | 0.00 | 100 | 1013.1 |
| 20260903043058 | 68 | 198 | 3.0 | 8.0 | 0.00 | 1.31 | 0.00 | 100 | 1012.9 |
| 20260903041553 | 68 | 205 | 4.0 | 10.0 | 0.00 | 1.31 | 0.00 | 100 | 1012.9 |
| 20260903040048 | 68 | 217 | 2.0 | 6.0 | 0.00 | 1.31 | 0.00 | 100 | 1013.1 |
| 20260903034552 | 68 | 244 | 3.0 | 10.0 | 0.01 | 1.31 | 1.31 | 100 | 1013.4 |
| 20260903033048 | 68 | 223 | 2.0 | 6.0 | 0.04 | 1.31 | 1.31 | 100 | 1013.8 |
| 20260903031610 | 68 | 246 | 2.0 | 8.0 | 0.05 | 1.31 | 1.31 | 100 | 1013.9 |
| 20260903030053 | 68 | 223 | 2.0 | 7.0 | 0.06 | 1.31 | 1.31 | 100 | 1014.4 |
| 20260903024547 | 68 | 256 | 4.0 | 9.0 | 0.05 | 1.30 | 1.30 | 100 | 1014.6 |
| 20260903023045 | 68 | 234 | 4.0 | 12.0 | 0.02 | 1.27 | 1.27 | 100 | 1015.4 |
| 20260903021544 | 68 | 155 | 2.0 | 5.0 | 0.02 | 1.26 | 1.26 | 100 | 1014.3 |
| 20260903020044 | 67 | 120 | 0.0 | 3.0 | 0.03 | 1.25 | 1.25 | 100 | 1014.4 |
| 20260903014551 | 68 | 213 | 1.0 | 6.0 | 0.03 | 1.25 | 1.25 | 100 | 1015.3 |
| 20260903013042 | 68 | 213 | 1.0 | 3.0 | 0.07 | 1.25 | 1.25 | 100 | 1015.0 |
| 20260903011538 | 68 | 223 | 0.0 | 3.0 | 0.41 | 1.24 | 1.24 | 100 | 1016.4 |
| 20260903010033 | 68 | 182 | 0.0 | 4.0 | 0.72 | 1.22 | 1.22 | 100 | 1015.9 |
| 20260903004540 | 68 | 176 | 3.0 | 5.0 | 0.72 | 1.22 | 1.22 | 100 | 1015.8 |
| 20260903003030 | 68 | 73 | 3.0 | 16.0 | 0.67 | 1.17 | 1.17 | 100 | 1016.3 |
| 20260903001520 | 69 | 310 | 18.0 | 35.0 | 0.32 | 0.82 | 0.82 | 100 | 1015.7 |
| 20260903000017 | 75 | 323 | 4.0 | 6.0 | 0.04 | 0.50 | 0.50 | 100 | 1013.2 |
| 20260902234512 | 75 | 272 | 1.0 | 6.0 | 0.26 | 0.50 | 0.50 | 100 | 1012.9 |
| 20260902233007 | 76 | 265 | 2.0 | 5.0 | 0.26 | 0.50 | 0.50 | 100 | 1013.2 |
| 20260902231504 | 77 | 202 | 1.0 | 9.0 | 0.26 | 0.50 | 0.50 | 100 | 1013.3 |
| 20260902230058 | 78 | 147 | 4.0 | 17.0 | 0.22 | 0.46 | 0.46 | 100 | 1013.6 |
| 20260902224604 | 79 | 142 | 0.0 | 3.0 | 0.00 | 0.24 | 0.24 | 100 | 1013.1 |
| 20260902223050 | 80 | 165 | 2.0 | 4.0 | 0.00 | 0.24 | 0.24 | 10 | 1013.0 |
| 20260902221545 | 81 | 153 | 1.0 | 3.0 | 0.00 | 0.24 | 0.24 | 7 | 1012.7 |
| 20260902220041 | 81 | 158 | 0.0 | 0.0 | 0.00 | 0.24 | 0.24 | 11 | 1013.2 |
| 20260902214536 | 82 | 123 | 1.0 | 3.0 | 0.00 | 0.24 | 0.24 | 23 | 1013.0 |
| 20260902213032 | 82 | 155 | 0.0 | 2.0 | 0.00 | 0.24 | 0.24 | 31 | 1013.3 |
| 20260902211528 | 82 | 167 | 1.0 | 3.0 | 0.00 | 0.24 | 0.24 | 41 | 1013.5 |
| 20260902210028 | 83 | 271 | 1.0 | 4.0 | 0.00 | 0.24 | 0.24 | 47 | 1014.2 |
| 20260902204519 | 83 | 239 | 3.0 | 9.0 | 0.00 | 0.24 | 0.24 | 51 | 1014.5 |
| 20260902203022 | 84 | 277 | 4.0 | 8.0 | 0.00 | 0.24 | 0.24 | 42 | 1014.6 |
| 20260902201513 | 83 | 240 | 2.0 | 9.0 | 0.00 | 0.24 | 0.24 | 31 | 1014.9 |
| 20260902200007 | 83 | 242 | 1.0 | 4.0 | 0.00 | 0.24 | 0.24 | 18 | 1014.8 |
| 20260902194601 | 83 | 253 | 2.0 | 6.0 | 0.00 | 0.24 | 0.24 | 21 | 1014.9 |